Time;durP1;ratioP1;P1;durP2;ratioP2;P2;SDS_P1;SDS_P2;PMS_P1;PMS_P2;Temp;Humidity;BMP_temperature;BMP_pressure;BME280_temperature;BME280_humidity;BME280_pressure;Samples;Min_cycle;Max_cycle;Signal;HPM_P1;HPM_P2
2023/07/12 00:02:16;;;;;;;3.53;2.78;;;;;;;-145.63;51.27;39239.38;5081205;28;20070;-69
2023/07/12 00:04:42;;;;;;;3.22;2.55;;;;;;;-145.63;51.66;39217.84;5066790;28;20024;-69
2023/07/12 00:07:12;;;;;;;5.47;2.85;;;;;;;-145.63;51.33;39172.88;5066697;28;20039;-69
2023/07/12 00:09:38;;;;;;;3.72;2.40;;;;;;;-145.63;52.00;39227.63;5067060;28;20041;-69
2023/07/12 00:12:04;;;;;;;5.50;2.40;;;;;;;-145.63;52.02;39196.34;5074988;28;20032;-68
2023/07/12 00:14:29;;;;;;;4.78;2.63;;;;;;;-145.63;51.57;39229.59;5066744;28;20064;-68
2023/07/12 00:16:55;;;;;;;4.70;2.50;;;;;;;-145.63;51.37;39239.38;5068385;28;20084;-69
2023/07/12 00:19:21;;;;;;;2.10;2.00;;;;;;;-145.63;51.43;39309.78;5085205;28;20369;-69
2023/07/12 00:21:46;;;;;;;4.80;2.17;;;;;;;-145.63;51.11;39239.38;5084028;28;20035;-69
2023/07/12 00:24:12;;;;;;;2.80;2.00;;;;;;;-145.63;50.70;39223.72;5073965;28;20021;-69
2023/07/12 00:26:38;;;;;;;3.80;2.70;;;;;;;-145.63;51.06;39249.16;5066089;28;20098;-69
2023/07/12 00:29:05;;;;;;;2.17;1.98;;;;;;;-145.63;50.84;39258.94;5069497;28;20027;-68
2023/07/12 00:31:33;;;;;;;3.65;2.67;;;;;;;-145.63;51.39;39241.31;5086073;28;20055;-69
2023/07/12 00:33:58;;;;;;;2.60;2.03;;;;;;;-145.63;52.03;39004.69;5067491;28;20035;-69
2023/07/12 00:36:29;;;;;;;2.25;2.08;;;;;;;-145.63;52.06;39213.94;5065861;28;20025;-70
2023/07/12 00:38:57;;;;;;;5.18;2.55;;;;;;;-145.63;51.97;39255.00;5076543;28;20081;-69
2023/07/12 00:42:17;;;;;;;3.00;2.40;;;;;;;-145.63;51.78;39239.38;5068051;28;20045;-69
2023/07/12 00:44:49;;;;;;;3.53;2.10;;;;;;;-145.63;51.44;39317.59;5041187;28;20036;-68
2023/07/12 00:47:15;;;;;;;3.38;2.65;;;;;;;-145.63;50.80;39255.00;5081367;28;20251;-70
2023/07/12 00:49:41;;;;;;;6.90;2.38;;;;;;;-145.63;51.14;39280.44;5064960;28;20037;-69
2023/07/12 00:52:18;;;;;;;2.47;2.15;;;;;;;-145.63;51.52;39215.91;5065881;28;20033;-69
2023/07/12 00:55:01;;;;;;;2.53;2.17;;;;;;;-145.63;51.36;39227.63;5082482;28;20035;-69
2023/07/12 00:57:30;;;;;;;3.15;2.65;;;;;;;-145.63;50.97;39233.50;5071464;28;20029;-68
2023/07/12 01:00:10;;;;;;;5.30;2.65;;;;;;;-145.63;51.60;38922.56;5075767;28;20024;-70
2023/07/12 01:02:39;;;;;;;4.75;2.65;;;;;;;-145.63;51.60;39255.00;5078049;28;20035;-69
2023/07/12 01:05:05;;;;;;;4.00;2.40;;;;;;;-145.63;51.45;39223.72;5068772;28;20048;-69
2023/07/12 01:07:31;;;;;;;3.75;2.38;;;;;;;-145.63;51.60;39341.06;5084907;28;20029;-69
2023/07/12 01:09:57;;;;;;;5.18;2.38;;;;;;;-145.63;51.37;39417.34;5066757;28;20036;-69
2023/07/12 01:12:22;;;;;;;5.28;2.58;;;;;;;-145.63;51.94;39280.44;5078973;28;20059;-69
2023/07/12 01:14:48;;;;;;;8.38;2.58;;;;;;;-145.63;51.94;39213.94;5076416;28;20032;-69
2023/07/12 01:17:14;;;;;;;4.65;2.67;;;;;;;-145.63;51.47;39262.84;5068459;28;20321;-69
2023/07/12 01:19:40;;;;;;;2.35;2.15;;;;;;;-145.63;51.20;39266.75;5085453;28;20035;-70
2023/07/12 01:22:07;;;;;;;5.65;2.88;;;;;;;-145.63;51.08;38461.06;5053051;28;20032;-70
2023/07/12 01:24:33;;;;;;;5.35;2.50;;;;;;;-145.63;51.47;38502.13;5066606;28;20091;-70
2023/07/12 01:27:05;;;;;;;4.30;2.50;;;;;;;-145.63;51.05;39213.94;5065316;28;20025;-70
2023/07/12 01:29:31;;;;;;;5.85;2.70;;;;;;;-145.63;51.03;39327.38;5071476;28;20028;-70
2023/07/12 01:31:57;;;;;;;5.60;2.55;;;;;;;-145.63;51.27;39247.19;5083620;28;20089;-70
2023/07/12 01:34:24;;;;;;;3.17;2.20;;;;;;;-145.63;51.02;38535.38;5064844;28;20257;-69
2023/07/12 01:36:49;;;;;;;3.25;2.40;;;;;;;-145.63;51.12;39247.19;5080483;28;20036;-69
2023/07/12 01:39:15;;;;;;;3.85;2.58;;;;;;;-145.63;50.69;39221.78;5075881;28;20031;-69
2023/07/12 01:41:41;;;;;;;3.28;2.78;;;;;;;-145.63;50.32;39235.47;5076820;28;20325;-69
2023/07/12 01:44:07;;;;;;;5.45;2.83;;;;;;;-145.63;50.86;39192.44;5082039;28;20033;-68
2023/07/12 01:46:33;;;;;;;4.43;2.95;;;;;;;-145.63;50.76;39239.38;5064535;28;20393;-69
2023/07/12 01:48:58;;;;;;;3.95;2.53;;;;;;;-145.63;50.37;39233.50;5083250;28;20021;-69
2023/07/12 01:51:26;;;;;;;9.65;6.82;;;;;;;-145.63;50.70;39239.38;5071120;28;20025;-69
2023/07/12 01:53:52;;;;;;;8.35;3.50;;;;;;;-145.63;51.06;39315.66;5073734;28;20048;-69
2023/07/12 01:56:17;;;;;;;5.43;2.80;;;;;;;-145.63;50.58;39626.63;5079888;28;20044;-70
2023/07/12 01:58:43;;;;;;;3.97;3.00;;;;;;;-145.63;50.52;39575.78;5064612;28;20040;-70
2023/07/12 02:01:09;;;;;;;5.45;2.80;;;;;;;-145.63;50.34;39290.22;5084576;28;20024;-70
2023/07/12 02:03:35;;;;;;;5.68;3.72;;;;;;;-145.63;50.22;39276.53;5068079;28;20351;-69
2023/07/12 02:06:00;;;;;;;5.05;2.70;;;;;;;-145.63;50.57;39249.16;5074595;28;20029;-70
2023/07/12 02:08:26;;;;;;;6.20;3.40;;;;;;;-145.63;50.53;38466.94;5078541;28;20083;-70
2023/07/12 02:10:52;;;;;;;5.68;2.70;;;;;;;-145.63;50.30;39208.06;5082524;28;20047;-70
2023/07/12 02:13:19;;;;;;;4.43;2.78;;;;;;;-145.63;50.10;39215.91;5064238;28;20044;-70
2023/07/12 02:15:45;;;;;;;6.75;3.08;;;;;;;-145.63;50.22;39262.84;5064216;28;20029;-70
2023/07/12 02:18:12;;;;;;;4.25;2.42;;;;;;;-145.63;50.41;39239.38;5063805;28;20021;-70
2023/07/12 02:20:39;;;;;;;6.32;2.72;;;;;;;-145.63;51.33;39233.50;5064021;28;20039;-70
2023/07/12 02:23:04;;;;;;;4.38;2.63;;;;;;;-145.63;50.34;39223.72;5066416;28;20016;-68
2023/07/12 02:25:30;;;;;;;5.32;3.67;;;;;;;-145.63;50.13;39601.19;5062404;28;20333;-68
2023/07/12 02:27:56;;;;;;;8.90;2.90;;;;;;;-145.63;50.72;39372.34;5081581;28;20028;-69
2023/07/12 02:30:27;;;;;;;4.25;2.78;;;;;;;-145.63;51.08;38263.59;5070520;28;20025;-71
2023/07/12 02:32:54;;;;;;;3.00;2.50;;;;;;;-145.63;50.34;39233.50;5072620;28;20024;-69
2023/07/12 02:35:21;;;;;;;3.08;2.35;;;;;;;-145.63;49.44;39217.84;5075558;28;20032;-68
2023/07/12 02:37:47;;;;;;;3.88;2.30;;;;;;;-145.63;49.48;39294.13;5063981;28;20070;-70
2023/07/12 02:40:14;;;;;;;2.85;2.50;;;;;;;-145.63;49.82;39253.06;5069663;28;20028;-68
2023/07/12 02:42:40;;;;;;;4.97;2.50;;;;;;;-145.63;49.32;39196.34;5063393;28;20092;-70
2023/07/12 02:45:07;;;;;;;2.17;2.08;;;;;;;-145.63;49.74;39305.88;5074242;28;20032;-69
2023/07/12 02:47:32;;;;;;;3.50;2.30;;;;;;;-145.63;49.92;39255.00;5077379;28;20438;-69
2023/07/12 02:49:58;;;;;;;2.95;2.50;;;;;;;-145.63;50.62;39241.31;5064370;28;20040;-69
2023/07/12 02:52:23;;;;;;;5.13;2.53;;;;;;;-145.63;50.22;39292.19;5083269;28;20363;-68
2023/07/12 02:54:49;;;;;;;2.85;2.22;;;;;;;-145.63;49.84;39245.25;5081393;28;20055;-69
2023/07/12 02:57:16;;;;;;;2.42;2.22;;;;;;;-145.63;49.71;39249.16;5078905;28;20031;-69
2023/07/12 02:59:42;;;;;;;2.85;1.83;;;;;;;-145.63;49.19;39227.63;5068006;28;20021;-69
2023/07/12 03:02:09;;;;;;;2.38;2.05;;;;;;;-145.63;49.95;39243.28;5062937;28;20136;-69
2023/07/12 03:04:35;;;;;;;5.50;2.30;;;;;;;-145.63;49.44;39294.13;5061970;28;20059;-69
2023/07/12 03:07:01;;;;;;;3.80;2.20;;;;;;;-145.63;48.85;39217.84;5081065;28;20024;-69
2023/07/12 03:09:27;;;;;;;2.05;1.85;;;;;;;-145.63;49.16;39323.47;5077084;28;20079;-69
2023/07/12 03:11:53;;;;;;;5.05;4.55;;;;;;;-145.63;48.76;39268.72;5074610;28;20029;-69
2023/07/12 03:14:20;;;;;;;7.70;2.42;;;;;;;-145.63;48.90;39229.59;5062856;28;20317;-70
2023/07/12 03:16:46;;;;;;;2.45;2.15;;;;;;;-145.63;49.13;39262.84;5063148;28;20021;-70
2023/07/12 03:19:13;;;;;;;4.47;2.30;;;;;;;-145.63;48.10;39251.09;5063246;28;20032;-70
2023/07/12 03:21:39;;;;;;;2.70;2.10;;;;;;;-145.63;49.11;39284.34;5077712;28;20104;-71
2023/07/12 03:24:05;;;;;;;5.32;2.50;;;;;;;-145.63;48.73;39256.97;5073100;28;20021;-71
2023/07/12 03:26:32;;;;;;;6.75;2.65;;;;;;;-145.63;47.93;39256.97;5068338;28;20028;-70
2023/07/12 03:28:58;;;;;;;3.33;2.22;;;;;;;-145.63;47.47;39255.00;5076445;28;20251;-70
2023/07/12 03:31:25;;;;;;;4.15;2.55;;;;;;;-145.63;47.83;39208.06;5065419;28;20322;-69
2023/07/12 03:33:51;;;;;;;3.20;2.63;;;;;;;-145.63;47.49;39194.38;5085011;28;20052;-69
2023/07/12 03:36:19;;;;;;;4.47;2.50;;;;;;;-145.63;47.64;39180.69;5073189;28;20371;-68
2023/07/12 03:38:44;;;;;;;4.10;2.08;;;;;;;-145.63;47.80;39188.53;5073672;28;20216;-69
2023/07/12 03:41:11;;;;;;;3.13;2.33;;;;;;;-145.63;46.76;39168.97;5069580;28;20029;-70
2023/07/12 03:43:37;;;;;;;3.72;2.38;;;;;;;-145.63;46.35;39157.22;5069560;28;20052;-69
2023/07/12 03:46:04;;;;;;;2.95;2.53;;;;;;;-145.63;46.61;39247.19;5087566;28;20051;-69
2023/07/12 03:48:30;;;;;;;7.50;2.80;;;;;;;-145.63;46.67;39143.53;5075887;28;20032;-69
2023/07/12 03:50:56;;;;;;;4.82;2.28;;;;;;;-145.63;46.75;38420.00;5078320;28;20016;-70
2023/07/12 03:53:24;;;;;;;4.10;2.55;;;;;;;-145.63;46.34;39161.13;5085529;28;20396;-70
2023/07/12 03:55:50;;;;;;;6.15;3.55;;;;;;;-145.63;45.95;39182.66;5069747;28;20051;-70
2023/07/12 03:58:28;;;;;;;4.72;2.75;;;;;;;-145.63;45.51;39196.34;5089433;28;20088;-70
2023/07/12 04:00:54;;;;;;;3.33;2.22;;;;;;;-145.63;45.73;39168.97;5072020;28;20092;-69
2023/07/12 04:03:20;;;;;;;4.53;2.63;;;;;;;-145.63;46.07;39196.34;5081262;28;20063;-69
2023/07/12 04:05:50;;;;;;;2.25;1.75;;;;;;;-145.63;46.14;39217.84;5082620;28;20025;-69
2023/07/12 04:08:16;;;;;;;154.65;115.82;;;;;;;-145.63;46.45;39182.66;5071235;28;20247;-69
2023/07/12 04:10:42;;;;;;;5.15;3.35;;;;;;;-145.63;46.67;39278.47;5070803;28;20128;-70
2023/07/12 04:13:08;;;;;;;4.38;2.15;;;;;;;-145.63;46.80;39204.16;5087786;28;20029;-70
2023/07/12 04:15:35;;;;;;;2.55;2.35;;;;;;;-145.63;46.42;39264.78;5075596;28;20210;-71
2023/07/12 04:18:03;;;;;;;2.22;1.92;;;;;;;-145.63;46.82;39215.91;5078451;28;20124;-70
2023/07/12 04:20:30;;;;;;;17.65;13.55;;;;;;;-145.63;47.42;39233.50;5084234;28;20047;-71
2023/07/12 04:22:55;;;;;;;3.80;2.47;;;;;;;-145.63;47.14;39280.44;5068826;28;20033;-70
2023/07/12 04:25:21;;;;;;;3.08;2.20;;;;;;;-145.63;46.81;39200.25;5069038;28;20271;-70
2023/07/12 04:27:47;;;;;;;2.63;2.22;;;;;;;-145.63;47.24;39219.81;5084798;28;20028;-71
2023/07/12 04:30:15;;;;;;;3.55;2.42;;;;;;;-145.63;46.40;38932.34;5079119;28;20115;-71
2023/07/12 04:32:41;;;;;;;2.55;2.35;;;;;;;-145.63;46.93;39305.88;5074088;28;20036;-69
2023/07/12 04:35:07;;;;;;;5.50;2.40;;;;;;;-145.63;46.40;39137.69;5083003;28;20123;-69
2023/07/12 04:37:34;;;;;;;3.97;2.10;;;;;;;-145.63;46.31;39165.06;5069039;28;20037;-69
2023/07/12 04:40:00;;;;;;;2.90;2.22;;;;;;;-145.63;46.41;39227.63;5074448;28;20123;-69
2023/07/12 04:42:26;;;;;;;4.28;2.25;;;;;;;-145.63;46.04;38494.31;5065660;28;20036;-71
2023/07/12 04:44:52;;;;;;;4.90;2.63;;;;;;;-145.63;45.68;39198.31;5073379;28;20016;-70
2023/07/12 04:47:18;;;;;;;6.10;2.78;;;;;;;-145.63;45.06;39133.75;5083132;28;20063;-70
2023/07/12 04:49:44;;;;;;;3.00;2.40;;;;;;;-145.63;45.38;39155.28;5066100;28;20036;-69
2023/07/12 04:52:13;;;;;;;2.90;2.47;;;;;;;-145.63;45.44;39176.78;5084219;28;20142;-69
2023/07/12 04:54:42;;;;;;;4.47;2.40;;;;;;;-145.63;45.35;39188.53;5068270;28;20037;-71
2023/07/12 04:57:08;;;;;;;7.18;2.20;;;;;;;-145.63;44.16;39153.31;5075409;28;20025;-71
2023/07/12 04:59:34;;;;;;;6.70;3.25;;;;;;;-145.63;45.03;39139.63;5080584;28;20025;-69
2023/07/12 05:02:00;;;;;;;2.45;2.20;;;;;;;-145.63;44.40;39104.44;5065544;28;20028;-69
2023/07/12 05:04:26;;;;;;;3.22;2.10;;;;;;;-145.63;43.45;39106.38;5064249;28;20049;-68
2023/07/12 05:06:54;;;;;;;3.00;2.00;;;;;;;-145.63;42.77;39172.88;5081835;28;20031;-70
2023/07/12 05:09:21;;;;;;;4.10;2.10;;;;;;;-145.63;42.62;38601.84;5078976;28;20107;-69
2023/07/12 05:11:50;;;;;;;3.72;2.10;;;;;;;-145.63;42.03;39149.41;5078756;28;20104;-71
2023/07/12 05:14:16;;;;;;;3.28;2.17;;;;;;;-145.63;42.52;39693.13;5065642;28;20060;-69
2023/07/12 05:16:41;;;;;;;3.03;2.08;;;;;;;-145.63;42.63;39212.00;5065577;28;20031;-70
2023/07/12 05:19:07;;;;;;;6.05;2.83;;;;;;;-145.63;42.35;39129.84;5065563;28;20248;-69
2023/07/12 05:21:33;;;;;;;3.75;2.30;;;;;;;-145.63;41.03;39270.66;5078246;28;20039;-69
2023/07/12 05:23:58;;;;;;;2.65;2.10;;;;;;;-145.63;41.25;39141.59;5077517;28;20025;-69
2023/07/12 05:26:24;;;;;;;4.55;2.10;;;;;;;-145.63;41.19;39096.59;5068529;28;20033;-70
2023/07/12 05:28:49;;;;;;;4.40;2.15;;;;;;;-145.63;40.54;39118.13;5085534;28;20032;-69
2023/07/12 05:31:16;;;;;;;2.33;2.13;;;;;;;-145.63;40.49;39135.72;5066465;28;20029;-69
2023/07/12 05:33:45;;;;;;;3.25;1.98;;;;;;;-145.63;40.96;38355.50;5079908;28;20051;-70
2023/07/12 05:36:12;;;;;;;3.60;2.05;;;;;;;-145.63;40.87;39180.69;5069976;28;20025;-69
2023/07/12 05:38:38;;;;;;;2.35;2.15;;;;;;;-145.63;41.22;38439.56;5069965;28;20122;-69
2023/07/12 05:41:04;;;;;;;3.05;2.47;;;;;;;-145.63;41.23;39137.69;5074908;28;20321;-70
2023/07/12 05:43:29;;;;;;;3.40;2.17;;;;;;;-145.63;40.68;39200.25;5084190;28;20041;-69
2023/07/12 05:45:58;;;;;;;3.17;2.55;;;;;;;-145.63;40.79;39176.78;5069364;28;20048;-69
2023/07/12 05:48:25;;;;;;;4.03;2.15;;;;;;;-145.63;40.60;39155.28;5076074;28;20201;-68
2023/07/12 05:50:52;;;;;;;7.40;2.60;;;;;;;-145.63;41.46;39174.84;5077603;28;20036;-69
2023/07/12 05:53:18;;;;;;;5.18;2.38;;;;;;;-145.63;41.64;39147.44;5066661;28;20025;-69
2023/07/12 05:55:43;;;;;;;2.78;2.25;;;;;;;-145.63;42.12;39168.97;5084428;28;20066;-69
2023/07/12 05:58:09;;;;;;;6.07;2.58;;;;;;;-145.63;43.12;39194.38;5067038;28;20094;-70
2023/07/12 06:00:35;;;;;;;6.50;2.80;;;;;;;-145.63;42.03;39147.44;5076957;28;20024;-70
2023/07/12 06:03:01;;;;;;;4.93;2.97;;;;;;;-145.63;42.48;39122.03;5075328;28;20048;-70
2023/07/12 06:05:27;;;;;;;4.65;2.67;;;;;;;-145.63;42.41;39098.56;5067283;28;20074;-70
2023/07/12 06:07:52;;;;;;;5.15;2.42;;;;;;;-145.63;42.24;39116.16;5084270;28;20313;-70
2023/07/12 06:10:18;;;;;;;2.97;2.67;;;;;;;-145.63;41.74;39120.06;5078129;28;20037;-72
2023/07/12 06:12:44;;;;;;;5.13;2.67;;;;;;;-145.63;41.81;39135.72;5069445;28;20199;-70
2023/07/12 06:15:10;;;;;;;6.75;2.88;;;;;;;-145.63;42.41;39102.47;5064377;28;20045;-70
2023/07/12 06:17:36;;;;;;;4.15;3.00;;;;;;;-145.63;41.94;39096.59;5068049;28;20036;-70
2023/07/12 06:20:02;;;;;;;3.60;3.15;;;;;;;-145.63;42.08;39245.25;5084481;28;20058;-71
2023/07/12 06:22:29;;;;;;;5.15;3.30;;;;;;;-145.63;41.52;39123.97;5043843;28;20079;-70
2023/07/12 06:24:54;;;;;;;4.53;3.38;;;;;;;-145.63;41.57;39073.13;5074828;28;20298;-70
2023/07/12 06:27:21;;;;;;;8.23;3.63;;;;;;;-145.63;41.94;39061.41;5073196;28;20308;-68
2023/07/12 06:29:47;;;;;;;4.72;3.60;;;;;;;-145.63;41.17;39266.75;5069859;28;20048;-70
2023/07/12 06:32:13;;;;;;;3.17;2.88;;;;;;;-145.63;41.06;39354.75;5083017;28;20051;-69
2023/07/12 06:34:39;;;;;;;5.80;3.33;;;;;;;-145.63;41.22;39114.22;5063414;28;20037;-68
2023/07/12 06:37:05;;;;;;;5.47;3.10;;;;;;;-145.63;41.30;38179.50;5064005;28;20036;-69
2023/07/12 06:39:31;;;;;;;3.78;3.33;;;;;;;-145.63;41.42;39125.94;5067324;28;20070;-70
2023/07/12 06:41:56;;;;;;;7.00;3.28;;;;;;;-145.63;41.30;39161.13;5063158;28;20025;-70
2023/07/12 06:44:22;;;;;;;3.30;3.00;;;;;;;-145.63;40.80;39114.22;5065801;28;20021;-68
2023/07/12 06:46:48;;;;;;;5.43;3.00;;;;;;;-145.63;41.33;38566.66;5083740;28;20034;-69
2023/07/12 06:49:15;;;;;;;10.52;3.53;;;;;;;-145.63;40.93;39057.50;5066319;28;20087;-69
2023/07/12 06:51:46;;;;;;;4.82;3.17;;;;;;;-145.63;39.77;38543.19;5077276;28;20038;-70
2023/07/12 06:54:13;;;;;;;2.72;2.53;;;;;;;-145.63;39.44;39092.69;5078942;28;20335;-69
2023/07/12 06:56:40;;;;;;;5.07;3.40;;;;;;;-145.63;39.44;39122.03;5052794;28;20071;-68
2023/07/12 06:59:05;;;;;;;5.80;3.80;;;;;;;-145.63;39.62;39065.31;5083413;28;20269;-69
2023/07/12 07:01:31;;;;;;;6.03;3.60;;;;;;;-145.63;40.32;39080.97;5062431;28;20025;-70
2023/07/12 07:03:56;;;;;;;4.72;3.75;;;;;;;-145.63;40.64;39151.38;5063703;28;20245;-71
2023/07/12 07:06:22;;;;;;;6.90;4.00;;;;;;;-145.63;41.18;39122.03;5072711;28;20040;-71
2023/07/12 07:08:47;;;;;;;5.88;4.05;;;;;;;-145.63;41.71;39172.88;5081347;28;20048;-69
2023/07/12 07:11:13;;;;;;;5.18;4.13;;;;;;;-145.63;42.34;39165.06;5064183;28;20029;-70
2023/07/12 07:13:39;;;;;;;8.05;4.13;;;;;;;-145.63;42.84;39145.50;5082419;28;20024;-69
2023/07/12 07:16:05;;;;;;;7.10;3.90;;;;;;;-145.63;42.32;39118.13;5066890;28;20128;-70
2023/07/12 07:18:30;;;;;;;6.93;4.05;;;;;;;-145.63;42.37;39258.94;5074526;28;20021;-69
2023/07/12 07:20:59;;;;;;;10.75;3.50;;;;;;;-145.63;42.60;39188.53;5076610;28;20020;-70
2023/07/12 07:23:24;;;;;;;3.95;3.03;;;;;;;-145.63;42.33;39168.97;5065283;28;20029;-70
2023/07/12 07:25:50;;;;;;;5.55;2.85;;;;;;;-145.63;42.14;39100.50;5083588;28;20035;-69
2023/07/12 07:28:16;;;;;;;5.70;2.97;;;;;;;-145.63;42.25;39092.69;5065483;28;20025;-67
2023/07/12 07:30:42;;;;;;;5.70;3.22;;;;;;;-145.63;42.03;39110.28;5065975;28;20087;-67
2023/07/12 07:33:08;;;;;;;6.40;3.47;;;;;;;-145.63;42.01;39114.22;5061941;28;20028;-67
2023/07/12 07:35:34;;;;;;;6.47;3.30;;;;;;;-145.63;42.26;39073.13;5061743;28;20037;-67
2023/07/12 07:38:00;;;;;;;5.55;3.00;;;;;;;-145.63;42.18;39063.34;5062706;28;20025;-67
2023/07/12 07:40:26;;;;;;;4.78;2.83;;;;;;;-145.63;41.63;39051.63;5066199;28;20340;-66
2023/07/12 07:42:54;;;;;;;4.68;2.97;;;;;;;-145.63;41.31;39053.59;5082258;28;20053;-65
2023/07/12 07:45:19;;;;;;;6.97;3.00;;;;;;;-145.63;41.39;39043.81;5072616;28;20044;-65
2023/07/12 07:47:45;;;;;;;4.60;2.60;;;;;;;-145.63;41.03;39053.59;5062538;28;20025;-65
2023/07/12 07:50:11;;;;;;;5.25;2.35;;;;;;;-145.63;41.09;39090.75;5062545;28;20120;-66
2023/07/12 07:52:37;;;;;;;8.77;2.72;;;;;;;-145.63;41.40;39108.34;5062499;28;20376;-64
2023/07/12 07:55:04;;;;;;;4.00;2.90;;;;;;;-145.63;41.05;39073.13;5077925;28;20025;-64
2023/07/12 07:57:29;;;;;;;4.00;2.38;;;;;;;-145.63;41.33;39094.66;5071315;28;20236;-64
2023/07/12 07:59:56;;;;;;;4.78;2.50;;;;;;;-145.63;41.82;39082.91;5068697;28;20044;-65
2023/07/12 08:02:22;;;;;;;4.95;2.70;;;;;;;-145.63;41.44;39084.88;5079362;28;20211;-65
2023/07/12 08:04:48;;;;;;;3.92;2.67;;;;;;;-145.63;41.51;39102.47;5062686;28;20041;-64
2023/07/12 08:07:14;;;;;;;4.05;2.38;;;;;;;-145.63;40.35;39108.34;5069123;28;20036;-64
2023/07/12 08:09:39;;;;;;;6.63;2.80;;;;;;;-145.63;40.68;39114.22;5074855;28;20052;-65
2023/07/12 08:12:07;;;;;;;4.10;2.30;;;;;;;-145.63;41.74;39153.31;5077581;28;20036;-66
2023/07/12 08:14:32;;;;;;;7.43;2.75;;;;;;;-145.63;41.78;39127.91;5077384;28;20032;-65
2023/07/12 08:16:58;;;;;;;4.75;2.50;;;;;;;-145.63;41.61;39122.03;5063288;28;20032;-65
2023/07/12 08:19:24;;;;;;;6.53;3.03;;;;;;;-145.63;42.03;39125.94;5070306;28;20025;-67
2023/07/12 08:21:50;;;;;;;6.55;2.60;;;;;;;-145.63;42.66;39131.81;5067765;28;20340;-65
2023/07/12 08:24:17;;;;;;;2.70;2.05;;;;;;;-145.63;41.17;39159.19;5078746;28;20029;-66
2023/07/12 08:26:43;;;;;;;2.28;1.80;;;;;;;-145.63;40.97;39172.88;5081662;28;20060;-66
2023/07/12 08:29:08;;;;;;;7.72;2.53;;;;;;;-145.63;42.39;39190.47;5066797;28;20339;-64
2023/07/12 08:31:34;;;;;;;5.53;2.70;;;;;;;-145.63;43.32;39153.31;5085541;28;20040;-66
2023/07/12 08:34:00;;;;;;;4.00;1.92;;;;;;;-145.63;44.09;39161.13;5074765;28;20289;-65
2023/07/12 08:36:25;;;;;;;6.18;2.17;;;;;;;-145.63;44.18;39131.81;5068574;28;20070;-66
2023/07/12 08:38:51;;;;;;;3.72;2.03;;;;;;;-145.63;43.40;39157.22;5071275;28;20029;-68
2023/07/12 08:41:21;;;;;;;2.35;1.95;;;;;;;-145.63;43.10;38977.31;5074020;28;20032;-68
2023/07/12 08:43:47;;;;;;;3.95;2.38;;;;;;;-145.63;43.45;39149.41;5084660;28;20224;-69
2023/07/12 08:46:17;;;;;;;3.58;1.95;;;;;;;-145.63;44.21;39153.31;5074007;28;20318;-68
2023/07/12 08:48:42;;;;;;;6.60;2.35;;;;;;;-145.63;44.12;39143.53;5071500;28;20090;-69
2023/07/12 08:51:25;;;;;;;6.30;3.10;;;;;;;-145.63;44.00;39125.94;5073034;28;20032;-68
2023/07/12 08:53:51;;;;;;;3.08;2.50;;;;;;;-145.63;43.91;39129.84;5084154;28;20086;-68
2023/07/12 08:56:18;;;;;;;5.47;2.45;;;;;;;-145.63;44.65;39161.13;5076286;28;20055;-70
2023/07/12 08:58:47;;;;;;;4.88;2.38;;;;;;;-145.63;45.20;39153.31;5085584;28;20372;-69
2023/07/12 09:01:34;;;;;;;9.75;3.15;;;;;;;-145.63;45.45;39073.13;5069216;28;20071;-69
2023/07/12 09:03:59;;;;;;;6.15;2.38;;;;;;;-145.63;44.68;39075.09;5077845;28;20384;-69
2023/07/12 09:06:25;;;;;;;4.57;2.10;;;;;;;-145.63;44.39;39114.22;5075463;28;20025;-70
2023/07/12 09:08:54;;;;;;;4.07;2.38;;;;;;;-145.63;44.99;39057.50;5067947;28;20055;-68
2023/07/12 09:11:27;;;;;;;3.88;1.95;;;;;;;-145.63;44.67;39114.22;5065301;28;20214;-69
2023/07/12 09:13:56;;;;;;;5.13;2.20;;;;;;;-145.63;44.46;39098.56;5065402;28;20078;-69
2023/07/12 09:16:28;;;;;;;3.92;1.75;;;;;;;-145.63;44.96;39110.28;5065003;28;20055;-69
2023/07/12 09:18:56;;;;;;;3.03;2.05;;;;;;;-145.63;44.74;39167.00;5080922;28;20047;-69
2023/07/12 09:21:36;;;;;;;6.13;2.50;;;;;;;-145.63;44.47;38887.34;5074028;28;20032;-69
2023/07/12 09:24:09;;;;;;;8.52;2.38;;;;;;;-145.63;44.65;39125.94;5078339;28;20033;-70
2023/07/12 09:26:36;;;;;;;4.40;2.53;;;;;;;-145.63;44.02;39061.41;5068765;28;20037;-71
2023/07/12 09:29:18;;;;;;;4.25;1.90;;;;;;;-145.63;43.16;39106.38;5071065;28;20141;-70
2023/07/12 09:31:45;;;;;;;5.88;2.58;;;;;;;-145.63;43.06;39079.00;5057391;28;20282;-68
2023/07/12 09:34:24;;;;;;;4.20;2.33;;;;;;;-145.63;43.71;39071.19;5065197;28;20028;-68
2023/07/12 09:36:58;;;;;;;3.17;2.35;;;;;;;-145.63;43.00;38353.53;5059220;28;20036;-68
2023/07/12 09:39:28;;;;;;;6.00;2.33;;;;;;;-145.63;42.20;39075.09;5065717;28;20029;-67
2023/07/12 09:41:58;;;;;;;4.38;2.55;;;;;;;-145.63;41.88;39065.31;5074051;28;20052;-68
2023/07/12 09:44:25;;;;;;;4.40;2.50;;;;;;;-145.63;41.88;39061.41;5083524;28;20032;-68
2023/07/12 09:46:57;;;;;;;6.07;2.88;;;;;;;-145.63;42.26;39082.91;5064169;28;20025;-66
2023/07/12 09:49:32;;;;;;;4.75;2.63;;;;;;;-145.63;41.74;39069.22;5064322;28;20048;-66
2023/07/12 09:52:09;;;;;;;3.80;2.65;;;;;;;-145.63;41.71;39082.91;5063854;28;20112;-67
2023/07/12 09:54:37;;;;;;;5.10;2.60;;;;;;;-145.63;41.72;39086.81;5056788;28;20326;-67
2023/07/12 09:57:15;;;;;;;5.30;2.33;;;;;;;-145.63;41.20;39100.50;5060399;28;20037;-68
2023/07/12 09:59:59;;;;;;;3.97;2.33;;;;;;;-145.63;41.38;39020.34;5067035;28;20091;-68
2023/07/12 10:02:40;;;;;;;6.65;2.45;;;;;;;-145.63;41.73;39067.28;5064975;28;20033;-68
2023/07/12 10:05:13;;;;;;;3.22;2.85;;;;;;;-145.63;41.63;39110.28;5044527;28;20075;-68
2023/07/12 10:07:41;;;;;;;6.28;2.70;;;;;;;-145.63;42.39;39112.25;5082489;28;20039;-69
2023/07/12 10:10:30;;;;;;;4.85;2.83;;;;;;;-145.63;43.21;39118.13;5069074;28;20095;-67
2023/07/12 10:13:12;;;;;;;4.30;2.55;;;;;;;-145.63;44.02;39172.88;5077328;28;20040;-69
2023/07/12 10:15:40;;;;;;;6.55;2.90;;;;;;;-145.63;44.87;39110.28;5074171;28;20035;-69
2023/07/12 10:18:16;;;;;;;3.60;2.60;;;;;;;-145.63;45.04;39161.13;5077934;28;20070;-69
2023/07/12 10:20:41;;;;;;;4.07;2.72;;;;;;;-145.63;45.87;39118.13;5066125;28;20032;-68
2023/07/12 10:23:12;;;;;;;7.35;2.80;;;;;;;-145.63;46.32;39125.94;5078750;28;20217;-68
2023/07/12 10:25:44;;;;;;;5.05;2.70;;;;;;;-145.63;46.23;39098.56;5063828;28;20059;-67
2023/07/12 10:28:38;;;;;;;5.75;3.08;;;;;;;-145.63;46.58;39116.16;5076829;28;20095;-65
2023/07/12 10:31:26;;;;;;;2.28;1.88;;;;;;;-145.63;46.44;39133.75;5072081;28;20043;-68
2023/07/12 10:33:59;;;;;;;3.67;2.40;;;;;;;-145.63;45.83;39139.63;5070021;28;20034;-66
2023/07/12 10:36:26;;;;;;;3.30;2.40;;;;;;;-145.63;44.86;39145.50;5064223;28;20025;-66
2023/07/12 10:38:52;;;;;;;2.90;2.30;;;;;;;-145.63;45.54;39139.63;5067932;28;20331;-67
2023/07/12 10:41:31;;;;;;;4.22;2.13;;;;;;;-145.63;44.60;39075.09;5070153;28;20199;-66
2023/07/12 10:44:07;;;;;;;3.45;2.30;;;;;;;-145.63;44.96;39157.22;5043500;28;20322;-66
2023/07/12 10:46:43;;;;;;;9.88;2.70;;;;;;;-145.63;44.36;39155.28;5063113;28;20096;-66
2023/07/12 10:49:15;;;;;;;5.90;2.60;;;;;;;-145.63;43.66;39110.28;5070455;28;20029;-65
2023/07/12 10:51:45;;;;;;;7.40;2.58;;;;;;;-145.63;45.82;39098.56;5074202;28;20028;-66
2023/07/12 10:54:29;;;;;;;4.13;2.60;;;;;;;-145.63;45.22;39065.31;5075325;28;20048;-69
2023/07/12 10:57:01;;;;;;;4.07;2.67;;;;;;;-145.63;44.77;39053.59;5063368;28;20098;-66
2023/07/12 10:59:32;;;;;;;2.78;2.25;;;;;;;-145.63;45.73;39077.06;5045381;28;20032;-71
2023/07/12 11:02:04;;;;;;;4.25;2.63;;;;;;;-145.63;43.85;39075.09;5062385;28;20025;-70
2023/07/12 11:04:30;;;;;;;4.82;2.40;;;;;;;-145.63;42.83;39051.63;5080723;28;20098;-69
2023/07/12 11:07:07;;;;;;;7.95;2.60;;;;;;;-145.63;43.73;39041.84;5069497;28;20302;-68
2023/07/12 11:09:42;;;;;;;4.45;2.38;;;;;;;-145.63;43.73;39082.91;5072625;28;20056;-69
2023/07/12 11:12:10;;;;;;;5.60;2.38;;;;;;;-145.63;42.60;39090.75;5075437;28;20041;-69
2023/07/12 11:14:39;;;;;;;3.97;2.75;;;;;;;-145.63;41.82;39024.25;5061983;28;20086;-67
2023/07/12 11:17:09;;;;;;;4.25;2.40;;;;;;;-145.63;42.20;39006.66;5062812;28;20020;-68
2023/07/12 11:19:34;;;;;;;3.08;2.35;;;;;;;-145.63;41.04;38991.00;5078668;28;20032;-67
2023/07/12 11:22:21;;;;;;;3.55;2.47;;;;;;;-145.63;39.98;39032.06;5069831;28;20119;-68